hwlogo.jpg (8581 bytes)
Home Your Weather Products Services Weather On Your Site Contact
HW Version Logo
Weather Info
Your Weather (Options)
Canadian Weather
International Weather
Enter your " Place, State", US Zip Code or ICAO:  
Forecast Information Radar Information
Kenora, Ontario, Canada  Lat: 49.77N, Lon: 94.35W
ICAO Used: CYQK
Current Conditions
Updated: 1:00 AM CST MON FEB 19 2018
Sun & Moon Information
Clear
Clear
Temp: -20°C
Humidity: 76%
Wind Speed: N 7 MPH
Barometer: 1017 mb
Dewpoint: -23°C
Heat Index: -20°C
Wind Chill: -28°C
Civil Twilight: 6:49 AM CST Moon Phase:
Waxing Crescent Moon
Sunrise: 7:22 AM CST
Sunset: 5:39 PM CST
Civil Twilight: 6:12 PM CST
Forecast for Kenora, ON:
(Forecast based on TAF for )
0239 AM CST MON FEB 19 2018
  
OVERNIGHT MORNING AFTERNOON
Partly
Cloudy
Fair Fair
ZoneCast:
Dated: 0239 AM CST MON FEB 19 2018
Overnight...Partly cloudy with winds from the north at 7 mph.

Morning...Partly cloudy with winds from the north at 7 mph. Becoming fair with winds from the northeast at 7 mph.

Afternoon...Fair with winds from the northeast at 7 mph.

Original Encoded TAF:
Dated: 0239 AM CST MON FEB 19 2018
2018/02/19 08:39
TAF CYQK 190738Z 1908/1920 35006KT P6SM FEW200 
      BECMG 1915/1917 04006KT 
      RMK NXT FCST BY 191400Z